createdAt,value
2017-12-15T00:03:51.765Z,5.00
2017-12-15T00:08:52.749Z,5.00
2017-12-15T00:13:53.761Z,5.10
2017-12-15T00:18:54.749Z,5.00
2017-12-15T00:23:55.817Z,4.90
2017-12-15T00:28:56.797Z,4.90
2017-12-15T00:33:57.812Z,4.80
2017-12-15T00:38:58.785Z,4.80
2017-12-15T00:43:59.789Z,4.70
2017-12-15T00:49:00.762Z,4.70
2017-12-15T00:54:01.746Z,4.70
2017-12-15T00:59:02.721Z,4.60
2017-12-15T01:04:04.453Z,4.50
2017-12-15T01:09:05.424Z,4.50
2017-12-15T01:14:06.393Z,4.50
2017-12-15T01:19:07.381Z,4.50
2017-12-15T01:24:08.341Z,4.50
2017-12-15T01:29:10.050Z,4.50
2017-12-15T01:34:11.744Z,4.50
2017-12-15T01:39:13.438Z,4.40
2017-12-15T01:44:15.135Z,4.40
2017-12-15T01:49:16.841Z,4.40
2017-12-15T01:54:18.524Z,4.40
2017-12-15T01:59:20.238Z,4.40
2017-12-15T02:04:22.002Z,4.30
2017-12-15T02:09:22.973Z,4.30
2017-12-15T02:14:23.969Z,4.30
2017-12-15T02:19:24.936Z,4.30
2017-12-15T02:24:25.889Z,4.30
2017-12-15T02:29:26.877Z,4.20
2017-12-15T02:34:27.861Z,4.20
2017-12-15T02:39:28.860Z,4.10
2017-12-15T02:44:29.797Z,4.00
2017-12-15T02:49:31.500Z,4.00
2017-12-15T02:54:32.490Z,3.90
2017-12-15T02:59:33.450Z,4.00
2017-12-15T03:04:35.165Z,3.90
2017-12-15T03:09:36.121Z,3.90
2017-12-15T03:14:37.831Z,3.90
2017-12-15T03:19:39.523Z,3.90
2017-12-15T03:24:40.477Z,3.80
2017-12-15T03:29:41.444Z,3.90
2017-12-15T03:34:42.453Z,3.90
2017-12-15T03:39:43.436Z,3.80
2017-12-15T03:44:44.424Z,3.80
2017-12-15T03:49:45.393Z,3.80
2017-12-15T03:54:46.373Z,3.70
2017-12-15T03:59:47.388Z,3.70
2017-12-15T04:04:49.107Z,3.70
2017-12-15T04:09:50.088Z,3.60
2017-12-15T04:14:51.052Z,3.70
2017-12-15T04:19:52.042Z,3.70
2017-12-15T04:24:53.017Z,3.60
2017-12-15T04:29:54.025Z,3.50
2017-12-15T04:34:55.029Z,3.60
2017-12-15T04:39:56.020Z,3.50
2017-12-15T04:44:57.000Z,3.40
2017-12-15T04:49:57.977Z,3.40
2017-12-15T04:54:59.010Z,3.40
2017-12-15T05:00:00.722Z,3.30
2017-12-15T05:05:03.570Z,3.30
2017-12-15T05:10:04.777Z,3.20
2017-12-15T05:15:05.770Z,3.20
2017-12-15T05:20:06.745Z,3.20
2017-12-15T05:25:07.773Z,3.20
2017-12-15T05:30:08.839Z,3.10
2017-12-15T05:35:09.797Z,3.00
2017-12-15T05:40:10.773Z,3.00
2017-12-15T05:45:11.721Z,3.00
2017-12-15T05:50:12.675Z,3.00
2017-12-15T05:55:14.382Z,3.10
2017-12-15T06:00:16.081Z,3.20
2017-12-15T06:05:17.777Z,3.20
2017-12-15T06:10:18.785Z,3.20
2017-12-15T06:15:19.773Z,3.20
2017-12-15T06:20:20.738Z,3.20
2017-12-15T06:25:21.708Z,3.30
2017-12-15T06:30:22.708Z,3.30
2017-12-15T06:35:23.685Z,3.30
2017-12-15T06:40:24.641Z,3.20
2017-12-15T06:45:33.308Z,3.20
2017-12-15T06:50:34.998Z,3.30
2017-12-15T06:55:35.962Z,3.20
2017-12-15T07:00:36.949Z,3.30
2017-12-15T07:05:37.937Z,3.40
2017-12-15T07:10:39.290Z,3.40
2017-12-15T07:15:40.297Z,3.40
2017-12-15T07:20:41.254Z,3.40
2017-12-15T07:25:42.221Z,3.50
2017-12-15T07:30:43.178Z,3.40
2017-12-15T07:35:44.878Z,3.30
2017-12-15T07:40:46.577Z,3.30
2017-12-15T07:45:48.329Z,3.40
2017-12-15T07:50:49.304Z,3.30
2017-12-15T07:55:50.259Z,3.50
2017-12-15T08:00:51.244Z,3.50
2017-12-15T08:05:52.200Z,3.50
2017-12-15T08:10:53.895Z,3.50
2017-12-15T08:15:55.589Z,3.50
2017-12-15T08:20:57.273Z,3.50
2017-12-15T08:25:58.264Z,3.60
2017-12-15T08:30:59.244Z,3.60
2017-12-15T08:36:01.234Z,3.50
2017-12-15T08:41:02.229Z,3.40
2017-12-15T08:46:03.224Z,3.30
2017-12-15T08:51:04.949Z,3.20
2017-12-15T08:56:05.950Z,3.20
2017-12-15T09:01:06.919Z,3.10
2017-12-15T09:06:07.877Z,2.90
2017-12-15T09:11:09.594Z,2.80
2017-12-15T09:16:10.565Z,2.70
2017-12-15T09:21:11.553Z,2.70
2017-12-15T09:26:12.516Z,2.70
2017-12-15T09:31:13.538Z,2.70
2017-12-15T09:36:14.504Z,2.60
2017-12-15T09:41:15.469Z,2.50
2017-12-15T09:46:17.169Z,2.70
2017-12-15T09:51:18.875Z,2.90
2017-12-15T09:56:20.590Z,3.00
2017-12-15T10:01:21.585Z,3.00
2017-12-15T10:06:22.558Z,3.00
2017-12-15T10:11:23.545Z,3.10
2017-12-15T10:16:24.540Z,3.20
2017-12-15T10:21:25.553Z,3.20
2017-12-15T10:26:26.521Z,3.20
2017-12-15T10:31:28.274Z,3.30
2017-12-15T10:36:29.313Z,3.20
2017-12-15T10:41:30.293Z,3.30
2017-12-15T10:46:31.321Z,3.40
2017-12-15T10:51:32.425Z,3.40
2017-12-15T10:56:33.405Z,3.50
2017-12-15T11:01:34.433Z,3.60
2017-12-15T11:06:35.397Z,3.70
2017-12-15T11:11:36.361Z,3.80
2017-12-15T11:16:37.328Z,3.90
2017-12-15T11:21:38.295Z,3.90
2017-12-15T11:26:39.267Z,4.00
2017-12-15T11:31:40.979Z,4.00
2017-12-15T11:36:42.057Z,4.00
2017-12-15T11:41:43.177Z,4.20
2017-12-15T11:46:44.194Z,4.20
2017-12-15T11:51:45.157Z,4.20
2017-12-15T11:56:46.128Z,4.30
2017-12-15T12:01:47.105Z,4.40
2017-12-15T12:06:48.080Z,4.40
2017-12-15T12:11:49.045Z,4.60
2017-12-15T12:16:50.005Z,4.70
2017-12-15T12:21:51.712Z,4.60
2017-12-15T12:26:53.416Z,4.60
2017-12-15T12:31:54.377Z,4.60
2017-12-15T12:36:56.089Z,4.60
2017-12-15T12:41:57.785Z,4.60
2017-12-15T12:46:59.488Z,4.60
2017-12-15T12:52:01.190Z,4.50
2017-12-15T12:57:02.149Z,4.50
2017-12-15T13:02:03.109Z,4.50
2017-12-15T13:07:04.081Z,4.40
2017-12-15T13:12:05.030Z,4.30
2017-12-15T13:17:06.006Z,4.30
2017-12-15T13:22:06.957Z,4.20
2017-12-15T13:27:08.649Z,4.20
2017-12-15T13:32:09.614Z,4.20
2017-12-15T13:37:10.649Z,4.20
2017-12-15T13:42:11.545Z,4.20
2017-12-15T13:47:12.497Z,4.20
2017-12-15T13:52:20.713Z,4.20
2017-12-15T13:57:21.714Z,4.20
2017-12-15T14:02:22.772Z,4.30
2017-12-15T14:07:23.800Z,4.30
2017-12-15T14:12:25.504Z,4.30
2017-12-15T14:17:26.468Z,4.30
2017-12-15T14:22:28.177Z,4.30
2017-12-15T14:27:29.864Z,4.50
2017-12-15T14:32:31.565Z,4.50
2017-12-15T14:37:33.271Z,4.50
2017-12-15T14:42:34.996Z,4.60
2017-12-15T14:47:35.981Z,4.50
2017-12-15T14:52:36.971Z,4.60
2017-12-15T14:57:37.969Z,4.60
2017-12-15T15:02:39.010Z,4.50
2017-12-15T15:07:40.817Z,4.60
2017-12-15T15:12:41.780Z,4.50
2017-12-15T15:17:43.493Z,4.50
2017-12-15T15:22:45.265Z,4.50
2017-12-15T15:27:46.253Z,4.50
2017-12-15T15:32:48.007Z,4.60
2017-12-15T15:37:49.010Z,4.50
2017-12-15T15:42:50.058Z,4.60
2017-12-15T15:47:51.057Z,4.60
2017-12-15T15:52:52.127Z,4.60
2017-12-15T15:57:53.141Z,4.50
2017-12-15T16:02:54.141Z,4.60
2017-12-15T16:07:55.120Z,4.60
2017-12-15T16:12:56.837Z,4.60
2017-12-15T16:17:57.817Z,4.50
2017-12-15T16:22:58.861Z,4.60
2017-12-15T16:27:59.862Z,4.70
2017-12-15T16:33:00.828Z,4.60
2017-12-15T16:38:01.805Z,4.60
2017-12-15T16:43:02.822Z,4.50
2017-12-15T16:48:03.820Z,4.40
2017-12-15T16:53:05.533Z,4.50
2017-12-15T16:58:07.434Z,4.60
2017-12-15T17:03:08.465Z,4.50
2017-12-15T17:08:09.445Z,4.60
2017-12-15T17:13:11.189Z,4.60
2017-12-15T17:18:12.885Z,4.70
2017-12-15T17:23:14.607Z,4.70
2017-12-15T17:28:15.561Z,4.60
2017-12-15T17:33:16.525Z,4.60
2017-12-15T17:38:17.609Z,4.60
2017-12-15T17:43:18.585Z,4.60
2017-12-15T17:48:19.556Z,4.60
2017-12-15T17:53:20.525Z,4.60
2017-12-15T17:58:21.497Z,4.60
2017-12-15T18:03:22.453Z,4.60
2017-12-15T18:08:24.173Z,4.70
2017-12-15T18:13:25.134Z,4.60
2017-12-15T18:18:26.122Z,4.70
2017-12-15T18:23:27.839Z,4.70
2017-12-15T18:28:28.805Z,4.60
2017-12-15T18:33:29.851Z,4.60
2017-12-15T18:38:30.816Z,4.60
2017-12-15T18:43:31.865Z,4.60
2017-12-15T18:48:32.904Z,4.60
2017-12-15T18:53:34.107Z,4.60
2017-12-15T18:58:35.282Z,4.70
2017-12-15T19:03:36.464Z,4.60
2017-12-15T19:08:37.497Z,4.60
2017-12-15T19:13:38.560Z,4.60
2017-12-15T19:18:39.853Z,4.50
2017-12-15T19:23:40.897Z,4.50
2017-12-15T19:28:41.953Z,4.50
2017-12-15T19:33:43.009Z,4.50
2017-12-15T19:38:44.078Z,4.50
2017-12-15T19:43:46.013Z,4.50
2017-12-15T19:48:47.077Z,4.40
2017-12-15T19:53:48.102Z,4.50
2017-12-15T19:58:49.291Z,4.50
2017-12-15T20:03:50.329Z,4.40
2017-12-15T20:08:51.469Z,4.40
2017-12-15T20:13:52.485Z,4.40
2017-12-15T20:18:54.249Z,4.40
2017-12-15T20:23:55.351Z,4.40
2017-12-15T20:28:56.405Z,4.40
2017-12-15T20:33:57.464Z,4.40
2017-12-15T20:38:58.574Z,4.40
2017-12-15T20:43:59.628Z,4.40
2017-12-15T20:49:00.688Z,4.30
2017-12-15T20:54:02.751Z,4.30
2017-12-15T20:59:03.995Z,4.30
2017-12-15T21:04:07.743Z,4.30
2017-12-15T21:09:09.912Z,4.40
2017-12-15T21:14:10.951Z,4.30
2017-12-15T21:19:12.037Z,4.50
2017-12-15T21:24:13.141Z,4.40
2017-12-15T21:29:14.142Z,4.20
2017-12-15T21:34:15.141Z,4.10
2017-12-15T21:39:16.305Z,4.10
2017-12-15T21:44:17.284Z,4.10
2017-12-15T21:49:18.264Z,4.20
2017-12-15T21:54:19.230Z,4.20
2017-12-15T21:59:20.205Z,4.30
2017-12-15T22:04:21.172Z,4.20
2017-12-15T22:09:22.889Z,4.00
2017-12-15T22:14:23.857Z,4.00
2017-12-15T22:19:25.077Z,4.00
2017-12-15T22:24:26.050Z,4.10
2017-12-15T22:29:27.091Z,4.10
2017-12-15T22:34:28.805Z,4.00
2017-12-15T22:39:29.768Z,3.90
2017-12-15T22:44:31.482Z,4.00
2017-12-15T22:49:33.194Z,4.00
2017-12-15T22:54:34.169Z,3.90
2017-12-15T22:59:35.861Z,3.90
2017-12-15T23:04:37.559Z,3.90
2017-12-15T23:09:39.262Z,3.80
2017-12-15T23:14:40.973Z,3.90
2017-12-15T23:19:42.701Z,3.90
2017-12-15T23:24:43.665Z,3.80
2017-12-15T23:29:44.629Z,3.90
2017-12-15T23:34:46.321Z,3.90
2017-12-15T23:39:47.337Z,3.90
2017-12-15T23:44:48.288Z,4.00
2017-12-15T23:49:49.996Z,3.90
2017-12-15T23:55:03.354Z,3.80
